sensor_id;sensor_type;location;lat;lon;timestamp;temperature;humidity
14248;DHT22;7208;49.826;6.004;2023-04-25T00:02:03;6.00;99.90
14248;DHT22;7208;49.826;6.004;2023-04-25T00:04:29;6.00;99.90
14248;DHT22;7208;49.826;6.004;2023-04-25T00:06:55;6.10;99.90
14248;DHT22;7208;49.826;6.004;2023-04-25T00:09:21;5.80;99.90
14248;DHT22;7208;49.826;6.004;2023-04-25T00:11:47;5.80;99.90
14248;DHT22;7208;49.826;6.004;2023-04-25T00:14:13;5.90;99.90
14248;DHT22;7208;49.826;6.004;2023-04-25T00:16:39;5.70;99.90
14248;DHT22;7208;49.826;6.004;2023-04-25T00:19:06;5.70;99.90
14248;DHT22;7208;49.826;6.004;2023-04-25T00:21:32;5.60;99.90
14248;DHT22;7208;49.826;6.004;2023-04-25T00:23:59;5.60;99.90
14248;DHT22;7208;49.826;6.004;2023-04-25T00:26:25;5.60;99.90
14248;DHT22;7208;49.826;6.004;2023-04-25T00:28:51;5.60;99.90
14248;DHT22;7208;49.826;6.004;2023-04-25T00:31:17;5.50;99.90
14248;DHT22;7208;49.826;6.004;2023-04-25T00:33:42;5.40;99.90
14248;DHT22;7208;49.826;6.004;2023-04-25T00:36:08;5.40;99.90
14248;DHT22;7208;49.826;6.004;2023-04-25T00:38:34;5.40;99.90
14248;DHT22;7208;49.826;6.004;2023-04-25T00:41:01;5.40;99.90
14248;DHT22;7208;49.826;6.004;2023-04-25T00:43:27;5.40;99.90
14248;DHT22;7208;49.826;6.004;2023-04-25T00:45:53;5.40;99.90
14248;DHT22;7208;49.826;6.004;2023-04-25T00:48:21;5.40;99.90
14248;DHT22;7208;49.826;6.004;2023-04-25T00:50:53;5.40;99.90
14248;DHT22;7208;49.826;6.004;2023-04-25T00:53:22;5.30;99.90
14248;DHT22;7208;49.826;6.004;2023-04-25T00:55:48;5.30;99.90
14248;DHT22;7208;49.826;6.004;2023-04-25T00:58:17;5.20;99.90
14248;DHT22;7208;49.826;6.004;2023-04-25T01:00:45;5.20;99.90
14248;DHT22;7208;49.826;6.004;2023-04-25T01:03:11;5.10;99.90
14248;DHT22;7208;49.826;6.004;2023-04-25T01:05:37;5.10;99.90
14248;DHT22;7208;49.826;6.004;2023-04-25T01:08:02;5.20;99.90
14248;DHT22;7208;49.826;6.004;2023-04-25T01:10:28;5.10;99.90
14248;DHT22;7208;49.826;6.004;2023-04-25T01:12:54;5.10;99.90
14248;DHT22;7208;49.826;6.004;2023-04-25T01:15:20;5.00;99.90
14248;DHT22;7208;49.826;6.004;2023-04-25T01:17:46;5.00;99.90
14248;DHT22;7208;49.826;6.004;2023-04-25T01:20:14;4.90;99.90
14248;DHT22;7208;49.826;6.004;2023-04-25T01:22:39;4.80;99.90
14248;DHT22;7208;49.826;6.004;2023-04-25T01:25:07;5.00;99.90
14248;DHT22;7208;49.826;6.004;2023-04-25T01:27:33;4.90;99.90
14248;DHT22;7208;49.826;6.004;2023-04-25T01:29:59;5.00;99.90
14248;DHT22;7208;49.826;6.004;2023-04-25T01:32:25;5.00;99.90
14248;DHT22;7208;49.826;6.004;2023-04-25T01:34:51;5.10;99.90
14248;DHT22;7208;49.826;6.004;2023-04-25T01:37:17;5.40;99.90
14248;DHT22;7208;49.826;6.004;2023-04-25T01:39:43;5.20;99.90
14248;DHT22;7208;49.826;6.004;2023-04-25T01:42:09;5.20;99.90
14248;DHT22;7208;49.826;6.004;2023-04-25T01:44:35;5.20;99.90
14248;DHT22;7208;49.826;6.004;2023-04-25T01:47:01;5.10;99.90
14248;DHT22;7208;49.826;6.004;2023-04-25T01:49:26;5.10;99.90
14248;DHT22;7208;49.826;6.004;2023-04-25T01:51:52;5.00;99.90
14248;DHT22;7208;49.826;6.004;2023-04-25T01:54:18;5.10;99.90
14248;DHT22;7208;49.826;6.004;2023-04-25T01:56:50;5.10;99.90
14248;DHT22;7208;49.826;6.004;2023-04-25T01:59:16;5.30;99.90
14248;DHT22;7208;49.826;6.004;2023-04-25T02:01:43;5.10;99.90
14248;DHT22;7208;49.826;6.004;2023-04-25T02:04:09;5.20;99.90
14248;DHT22;7208;49.826;6.004;2023-04-25T02:06:34;5.40;99.90
14248;DHT22;7208;49.826;6.004;2023-04-25T02:09:00;5.20;99.90
14248;DHT22;7208;49.826;6.004;2023-04-25T02:11:26;5.30;99.90
14248;DHT22;7208;49.826;6.004;2023-04-25T02:13:51;5.30;99.90
14248;DHT22;7208;49.826;6.004;2023-04-25T02:16:17;5.30;99.90
14248;DHT22;7208;49.826;6.004;2023-04-25T02:18:44;5.30;99.90
14248;DHT22;7208;49.826;6.004;2023-04-25T02:21:10;5.40;99.90
14248;DHT22;7208;49.826;6.004;2023-04-25T02:23:37;5.30;99.90
14248;DHT22;7208;49.826;6.004;2023-04-25T02:26:03;5.30;99.90
14248;DHT22;7208;49.826;6.004;2023-04-25T02:28:28;5.30;99.90
14248;DHT22;7208;49.826;6.004;2023-04-25T02:30:54;5.20;99.90
14248;DHT22;7208;49.826;6.004;2023-04-25T02:33:20;5.30;99.90
14248;DHT22;7208;49.826;6.004;2023-04-25T02:35:46;5.30;99.90
14248;DHT22;7208;49.826;6.004;2023-04-25T02:38:12;5.30;99.90
14248;DHT22;7208;49.826;6.004;2023-04-25T02:40:37;5.30;99.90
14248;DHT22;7208;49.826;6.004;2023-04-25T02:43:03;5.30;99.90
14248;DHT22;7208;49.826;6.004;2023-04-25T02:45:29;5.30;99.90
14248;DHT22;7208;49.826;6.004;2023-04-25T02:47:54;5.30;99.90
14248;DHT22;7208;49.826;6.004;2023-04-25T02:50:20;5.20;99.90
14248;DHT22;7208;49.826;6.004;2023-04-25T02:52:46;5.20;99.90
14248;DHT22;7208;49.826;6.004;2023-04-25T02:55:13;5.30;99.90
14248;DHT22;7208;49.826;6.004;2023-04-25T02:57:39;5.30;99.90
14248;DHT22;7208;49.826;6.004;2023-04-25T03:00:05;5.30;99.90
14248;DHT22;7208;49.826;6.004;2023-04-25T03:02:31;5.30;99.90
14248;DHT22;7208;49.826;6.004;2023-04-25T03:04:56;5.30;99.90
14248;DHT22;7208;49.826;6.004;2023-04-25T03:07:22;5.40;99.90
14248;DHT22;7208;49.826;6.004;2023-04-25T03:09:47;5.30;99.90
14248;DHT22;7208;49.826;6.004;2023-04-25T03:12:13;5.40;99.90
14248;DHT22;7208;49.826;6.004;2023-04-25T03:14:39;5.30;99.90
14248;DHT22;7208;49.826;6.004;2023-04-25T03:17:04;5.30;99.90
14248;DHT22;7208;49.826;6.004;2023-04-25T03:19:30;5.50;99.90
14248;DHT22;7208;49.826;6.004;2023-04-25T03:21:56;5.50;99.90
14248;DHT22;7208;49.826;6.004;2023-04-25T03:24:21;5.30;99.90
14248;DHT22;7208;49.826;6.004;2023-04-25T03:26:47;5.30;99.90
14248;DHT22;7208;49.826;6.004;2023-04-25T03:29:13;5.30;99.90
14248;DHT22;7208;49.826;6.004;2023-04-25T03:31:38;5.30;99.90
14248;DHT22;7208;49.826;6.004;2023-04-25T03:34:04;5.30;99.90
14248;DHT22;7208;49.826;6.004;2023-04-25T03:36:30;5.30;99.90
14248;DHT22;7208;49.826;6.004;2023-04-25T03:38:56;5.30;99.90
14248;DHT22;7208;49.826;6.004;2023-04-25T03:41:21;5.30;99.90
14248;DHT22;7208;49.826;6.004;2023-04-25T03:43:47;5.30;99.90
